sensor_id;sensor_type;location;lat;lon;timestamp;temperature;humidity
2300;DHT22;1158;48.750;9.078;2023-04-25T00:01:29;6.50;99.90
2300;DHT22;1158;48.750;9.078;2023-04-25T00:03:57;6.50;99.90
2300;DHT22;1158;48.750;9.078;2023-04-25T00:06:24;6.50;99.90
2300;DHT22;1158;48.750;9.078;2023-04-25T00:08:52;6.50;99.90
2300;DHT22;1158;48.750;9.078;2023-04-25T00:11:18;6.50;99.90
2300;DHT22;1158;48.750;9.078;2023-04-25T00:13:45;6.50;99.90
2300;DHT22;1158;48.750;9.078;2023-04-25T00:16:12;6.40;99.90
2300;DHT22;1158;48.750;9.078;2023-04-25T00:18:41;6.40;99.90
2300;DHT22;1158;48.750;9.078;2023-04-25T00:21:10;6.40;99.90
2300;DHT22;1158;48.750;9.078;2023-04-25T00:23:36;6.40;99.90
2300;DHT22;1158;48.750;9.078;2023-04-25T00:26:04;6.30;99.90
2300;DHT22;1158;48.750;9.078;2023-04-25T00:28:31;6.30;99.90
2300;DHT22;1158;48.750;9.078;2023-04-25T00:30:57;6.30;99.90
2300;DHT22;1158;48.750;9.078;2023-04-25T00:33:24;6.30;99.90
2300;DHT22;1158;48.750;9.078;2023-04-25T00:35:51;6.30;99.90
2300;DHT22;1158;48.750;9.078;2023-04-25T00:38:19;6.30;99.90
2300;DHT22;1158;48.750;9.078;2023-04-25T00:40:46;6.30;99.90
2300;DHT22;1158;48.750;9.078;2023-04-25T00:43:13;6.30;99.90
2300;DHT22;1158;48.750;9.078;2023-04-25T00:45:40;6.30;99.90
2300;DHT22;1158;48.750;9.078;2023-04-25T00:48:06;6.30;99.90
2300;DHT22;1158;48.750;9.078;2023-04-25T00:50:34;6.20;99.90
2300;DHT22;1158;48.750;9.078;2023-04-25T00:53:02;6.20;99.90
2300;DHT22;1158;48.750;9.078;2023-04-25T00:55:30;6.20;99.90
2300;DHT22;1158;48.750;9.078;2023-04-25T00:57:57;6.20;99.90
2300;DHT22;1158;48.750;9.078;2023-04-25T01:00:24;6.20;99.90
2300;DHT22;1158;48.750;9.078;2023-04-25T01:02:51;6.20;99.90
2300;DHT22;1158;48.750;9.078;2023-04-25T01:05:18;6.20;99.90
2300;DHT22;1158;48.750;9.078;2023-04-25T01:07:45;6.30;99.90
2300;DHT22;1158;48.750;9.078;2023-04-25T01:10:12;6.30;99.90
2300;DHT22;1158;48.750;9.078;2023-04-25T01:12:41;6.30;99.90
2300;DHT22;1158;48.750;9.078;2023-04-25T01:15:09;6.30;99.90
2300;DHT22;1158;48.750;9.078;2023-04-25T01:17:35;6.20;99.90
2300;DHT22;1158;48.750;9.078;2023-04-25T01:20:03;6.20;99.90
2300;DHT22;1158;48.750;9.078;2023-04-25T01:22:32;6.20;99.90
2300;DHT22;1158;48.750;9.078;2023-04-25T01:25:00;6.20;99.90
2300;DHT22;1158;48.750;9.078;2023-04-25T01:27:27;6.20;99.90
2300;DHT22;1158;48.750;9.078;2023-04-25T01:29:54;6.20;99.90
2300;DHT22;1158;48.750;9.078;2023-04-25T01:32:22;6.20;99.90
2300;DHT22;1158;48.750;9.078;2023-04-25T01:34:49;6.20;99.90
2300;DHT22;1158;48.750;9.078;2023-04-25T01:37:16;6.20;99.90
2300;DHT22;1158;48.750;9.078;2023-04-25T01:39:45;6.30;99.90
2300;DHT22;1158;48.750;9.078;2023-04-25T01:42:12;6.20;99.90
2300;DHT22;1158;48.750;9.078;2023-04-25T01:44:39;6.20;99.90
2300;DHT22;1158;48.750;9.078;2023-04-25T01:47:06;6.20;99.90
2300;DHT22;1158;48.750;9.078;2023-04-25T01:49:33;6.20;99.90
2300;DHT22;1158;48.750;9.078;2023-04-25T01:52:00;6.20;99.90
2300;DHT22;1158;48.750;9.078;2023-04-25T01:54:26;6.20;99.90
2300;DHT22;1158;48.750;9.078;2023-04-25T01:56:57;6.30;99.90
2300;DHT22;1158;48.750;9.078;2023-04-25T01:59:23;6.30;99.90
2300;DHT22;1158;48.750;9.078;2023-04-25T02:01:51;6.20;99.90
2300;DHT22;1158;48.750;9.078;2023-04-25T02:04:17;6.20;99.90
2300;DHT22;1158;48.750;9.078;2023-04-25T02:06:44;6.10;99.90
2300;DHT22;1158;48.750;9.078;2023-04-25T02:09:11;6.10;99.90
2300;DHT22;1158;48.750;9.078;2023-04-25T02:11:38;6.00;99.90
2300;DHT22;1158;48.750;9.078;2023-04-25T02:14:06;5.90;99.90
2300;DHT22;1158;48.750;9.078;2023-04-25T02:16:33;5.90;99.90
2300;DHT22;1158;48.750;9.078;2023-04-25T02:19:01;5.90;99.90
2300;DHT22;1158;48.750;9.078;2023-04-25T02:21:27;5.80;99.90
2300;DHT22;1158;48.750;9.078;2023-04-25T02:23:54;5.80;99.90
2300;DHT22;1158;48.750;9.078;2023-04-25T02:26:21;5.80;99.90
2300;DHT22;1158;48.750;9.078;2023-04-25T02:28:49;5.80;99.90
2300;DHT22;1158;48.750;9.078;2023-04-25T02:31:17;5.90;99.90
2300;DHT22;1158;48.750;9.078;2023-04-25T02:33:44;5.90;99.90
2300;DHT22;1158;48.750;9.078;2023-04-25T02:36:11;5.90;99.90
2300;DHT22;1158;48.750;9.078;2023-04-25T02:38:38;5.90;99.90
2300;DHT22;1158;48.750;9.078;2023-04-25T02:41:05;5.90;99.90
2300;DHT22;1158;48.750;9.078;2023-04-25T02:43:31;5.80;99.90
2300;DHT22;1158;48.750;9.078;2023-04-25T02:45:58;5.80;99.90
2300;DHT22;1158;48.750;9.078;2023-04-25T02:48:26;5.80;99.90
2300;DHT22;1158;48.750;9.078;2023-04-25T02:50:53;5.70;99.90
2300;DHT22;1158;48.750;9.078;2023-04-25T02:53:20;5.70;99.90
2300;DHT22;1158;48.750;9.078;2023-04-25T02:55:47;5.60;99.90
2300;DHT22;1158;48.750;9.078;2023-04-25T02:58:13;5.60;99.90
2300;DHT22;1158;48.750;9.078;2023-04-25T03:00:41;5.60;99.90
2300;DHT22;1158;48.750;9.078;2023-04-25T03:03:07;5.60;99.90
2300;DHT22;1158;48.750;9.078;2023-04-25T03:05:35;5.70;99.90
2300;DHT22;1158;48.750;9.078;2023-04-25T03:08:02;5.70;99.90
2300;DHT22;1158;48.750;9.078;2023-04-25T03:10:29;5.70;99.90
2300;DHT22;1158;48.750;9.078;2023-04-25T03:12:56;5.70;99.90
2300;DHT22;1158;48.750;9.078;2023-04-25T03:15:22;5.80;99.90
2300;DHT22;1158;48.750;9.078;2023-04-25T03:17:49;5.80;99.90
2300;DHT22;1158;48.750;9.078;2023-04-25T03:20:16;5.80;99.90
2300;DHT22;1158;48.750;9.078;2023-04-25T03:22:44;5.80;99.90
2300;DHT22;1158;48.750;9.078;2023-04-25T03:25:10;5.80;99.90
2300;DHT22;1158;48.750;9.078;2023-04-25T03:27:37;5.80;99.90
2300;DHT22;1158;48.750;9.078;2023-04-25T03:30:05;5.80;99.90
2300;DHT22;1158;48.750;9.078;2023-04-25T03:32:33;5.80;99.90
2300;DHT22;1158;48.750;9.078;2023-04-25T03:35:00;5.80;99.90
2300;DHT22;1158;48.750;9.078;2023-04-25T03:37:27;5.80;99.90
2300;DHT22;1158;48.750;9.078;2023-04-25T03:39:55;5.80;99.90
2300;DHT22;1158;48.750;9.078;2023-04-25T03:42:21;5.80;99.90
2300;DHT22;1158;48.750;9.078;2023-04-25T03:44:48;5.70;99.90
2300;DHT22;1158;48.750;9.078;2023-04-25T03:47:15;5.70;99.90
2300;DHT22;1158;48.750;9.078;2023-04-25T03:49:42;5.70;99.90
2300;DHT22;1158;48.750;9.078;2023-04-25T03:52:09;5.80;99.90
2300;DHT22;1158;48.750;9.078;2023-04-25T03:54:36;5.80;99.90
2300;DHT22;1158;48.750;9.078;2023-04-25T03:57:04;5.90;99.90
2300;DHT22;1158;48.750;9.078;2023-04-25T03:59:31;5.90;99.90
2300;DHT22;1158;48.750;9.078;2023-04-25T04:01:57;5.90;99.90
2300;DHT22;1158;48.750;9.078;2023-04-25T04:04:24;5.80;99.90
2300;DHT22;1158;48.750;9.078;2023-04-25T04:06:51;5.80;99.90
2300;DHT22;1158;48.750;9.078;2023-04-25T04:09:18;5.80;99.90
2300;DHT22;1158;48.750;9.078;2023-04-25T04:11:45;5.70;99.90
2300;DHT22;1158;48.750;9.078;2023-04-25T04:14:13;5.60;99.90
2300;DHT22;1158;48.750;9.078;2023-04-25T04:16:40;5.50;99.90
2300;DHT22;1158;48.750;9.078;2023-04-25T04:19:07;5.40;99.90
2300;DHT22;1158;48.750;9.078;2023-04-25T04:21:34;5.40;99.90
2300;DHT22;1158;48.750;9.078;2023-04-25T04:24:00;5.40;99.90
2300;DHT22;1158;48.750;9.078;2023-04-25T04:26:27;5.50;99.90
2300;DHT22;1158;48.750;9.078;2023-04-25T04:28:54;5.50;99.90
2300;DHT22;1158;48.750;9.078;2023-04-25T04:31:22;5.50;99.90
2300;DHT22;1158;48.750;9.078;2023-04-25T04:33:50;5.40;99.90
2300;DHT22;1158;48.750;9.078;2023-04-25T04:36:17;5.40;99.90
2300;DHT22;1158;48.750;9.078;2023-04-25T04:38:45;5.50;99.90
2300;DHT22;1158;48.750;9.078;2023-04-25T04:41:12;5.50;99.90
2300;DHT22;1158;48.750;9.078;2023-04-25T04:43:39;5.50;99.90
2300;DHT22;1158;48.750;9.078;2023-04-25T04:46:06;5.60;99.90
2300;DHT22;1158;48.750;9.078;2023-04-25T04:48:34;5.60;99.90
2300;DHT22;1158;48.750;9.078;2023-04-25T04:51:00;5.70;99.90
2300;DHT22;1158;48.750;9.078;2023-04-25T04:53:27;5.70;99.90
2300;DHT22;1158;48.750;9.078;2023-04-25T04:55:54;5.80;99.90
2300;DHT22;1158;48.750;9.078;2023-04-25T04:58:21;5.80;99.90
2300;DHT22;1158;48.750;9.078;2023-04-25T05:00:48;5.90;99.90
2300;DHT22;1158;48.750;9.078;2023-04-25T05:03:14;5.90;99.90
2300;DHT22;1158;48.750;9.078;2023-04-25T05:05:42;6.00;99.90
2300;DHT22;1158;48.750;9.078;2023-04-25T05:08:11;6.00;99.90
2300;DHT22;1158;48.750;9.078;2023-04-25T05:10:37;6.10;99.90
2300;DHT22;1158;48.750;9.078;2023-04-25T05:13:04;6.10;99.90
2300;DHT22;1158;48.750;9.078;2023-04-25T05:15:31;6.20;99.90
2300;DHT22;1158;48.750;9.078;2023-04-25T05:17:57;6.20;99.90
2300;DHT22;1158;48.750;9.078;2023-04-25T05:20:24;6.10;99.90
2300;DHT22;1158;48.750;9.078;2023-04-25T05:22:52;6.10;99.90
2300;DHT22;1158;48.750;9.078;2023-04-25T05:25:19;6.20;99.90
2300;DHT22;1158;48.750;9.078;2023-04-25T05:27:46;6.20;99.90
2300;DHT22;1158;48.750;9.078;2023-04-25T05:30:13;6.30;99.90
2300;DHT22;1158;48.750;9.078;2023-04-25T05:32:39;6.50;99.90
2300;DHT22;1158;48.750;9.078;2023-04-25T05:35:07;6.60;99.90
2300;DHT22;1158;48.750;9.078;2023-04-25T05:37:34;6.70;99.90
2300;DHT22;1158;48.750;9.078;2023-04-25T05:40:02;7.00;99.90
2300;DHT22;1158;48.750;9.078;2023-04-25T05:42:32;7.10;99.90
2300;DHT22;1158;48.750;9.078;2023-04-25T05:44:58;7.20;99.90
2300;DHT22;1158;48.750;9.078;2023-04-25T05:47:26;7.10;99.90
2300;DHT22;1158;48.750;9.078;2023-04-25T05:49:52;7.00;99.90
2300;DHT22;1158;48.750;9.078;2023-04-25T05:52:19;6.90;99.90
2300;DHT22;1158;48.750;9.078;2023-04-25T05:54:46;6.70;99.90
2300;DHT22;1158;48.750;9.078;2023-04-25T05:57:20;6.60;99.90
2300;DHT22;1158;48.750;9.078;2023-04-25T05:59:47;6.50;99.90
2300;DHT22;1158;48.750;9.078;2023-04-25T06:02:14;6.50;99.90
2300;DHT22;1158;48.750;9.078;2023-04-25T06:04:40;6.50;99.90
2300;DHT22;1158;48.750;9.078;2023-04-25T06:07:07;6.50;99.90
2300;DHT22;1158;48.750;9.078;2023-04-25T06:09:34;6.50;99.90
2300;DHT22;1158;48.750;9.078;2023-04-25T06:12:00;6.50;99.90
2300;DHT22;1158;48.750;9.078;2023-04-25T06:14:28;6.40;99.90
2300;DHT22;1158;48.750;9.078;2023-04-25T06:16:55;6.40;99.90
2300;DHT22;1158;48.750;9.078;2023-04-25T06:19:22;6.40;99.90
2300;DHT22;1158;48.750;9.078;2023-04-25T06:21:49;6.40;99.90
2300;DHT22;1158;48.750;9.078;2023-04-25T06:24:15;6.40;99.90
2300;DHT22;1158;48.750;9.078;2023-04-25T06:26:42;6.40;99.90
2300;DHT22;1158;48.750;9.078;2023-04-25T06:29:09;6.40;99.90
2300;DHT22;1158;48.750;9.078;2023-04-25T06:31:37;6.40;99.90
2300;DHT22;1158;48.750;9.078;2023-04-25T06:34:04;6.40;99.90
2300;DHT22;1158;48.750;9.078;2023-04-25T06:36:30;6.30;99.90
2300;DHT22;1158;48.750;9.078;2023-04-25T06:38:57;6.30;99.90
2300;DHT22;1158;48.750;9.078;2023-04-25T06:41:24;6.20;99.90
2300;DHT22;1158;48.750;9.078;2023-04-25T06:43:50;6.20;99.90
2300;DHT22;1158;48.750;9.078;2023-04-25T06:46:17;6.10;99.90
2300;DHT22;1158;48.750;9.078;2023-04-25T06:48:45;6.10;99.90
2300;DHT22;1158;48.750;9.078;2023-04-25T06:51:12;6.10;99.90
2300;DHT22;1158;48.750;9.078;2023-04-25T06:53:39;6.10;99.90
2300;DHT22;1158;48.750;9.078;2023-04-25T06:56:06;6.10;99.90
2300;DHT22;1158;48.750;9.078;2023-04-25T06:58:33;6.20;99.90
2300;DHT22;1158;48.750;9.078;2023-04-25T07:01:00;6.20;99.90
2300;DHT22;1158;48.750;9.078;2023-04-25T07:03:26;6.20;99.90
2300;DHT22;1158;48.750;9.078;2023-04-25T07:05:54;6.20;99.90
2300;DHT22;1158;48.750;9.078;2023-04-25T07:08:21;6.20;99.90
2300;DHT22;1158;48.750;9.078;2023-04-25T07:10:48;6.30;99.90
2300;DHT22;1158;48.750;9.078;2023-04-25T07:13:15;6.30;99.90
2300;DHT22;1158;48.750;9.078;2023-04-25T07:15:41;6.20;99.90
2300;DHT22;1158;48.750;9.078;2023-04-25T07:18:08;6.30;99.90
2300;DHT22;1158;48.750;9.078;2023-04-25T07:20:36;6.20;99.90
2300;DHT22;1158;48.750;9.078;2023-04-25T07:23:04;6.20;99.90
2300;DHT22;1158;48.750;9.078;2023-04-25T07:25:31;6.20;99.90
2300;DHT22;1158;48.750;9.078;2023-04-25T07:27:57;6.30;99.90
2300;DHT22;1158;48.750;9.078;2023-04-25T07:30:24;6.20;99.90
2300;DHT22;1158;48.750;9.078;2023-04-25T07:32:51;6.10;99.90
2300;DHT22;1158;48.750;9.078;2023-04-25T07:35:17;6.20;99.90
2300;DHT22;1158;48.750;9.078;2023-04-25T07:37:44;6.10;99.90
2300;DHT22;1158;48.750;9.078;2023-04-25T07:40:13;6.10;99.90
2300;DHT22;1158;48.750;9.078;2023-04-25T07:42:41;6.10;99.90
2300;DHT22;1158;48.750;9.078;2023-04-25T07:45:08;6.00;99.90
2300;DHT22;1158;48.750;9.078;2023-04-25T07:47:35;6.00;99.90
2300;DHT22;1158;48.750;9.078;2023-04-25T07:50:02;6.00;99.90
2300;DHT22;1158;48.750;9.078;2023-04-25T07:52:29;5.90;99.90
2300;DHT22;1158;48.750;9.078;2023-04-25T07:54:55;6.00;99.90
2300;DHT22;1158;48.750;9.078;2023-04-25T07:57:24;6.10;99.90
2300;DHT22;1158;48.750;9.078;2023-04-25T07:59:51;6.20;99.90
2300;DHT22;1158;48.750;9.078;2023-04-25T08:02:17;6.20;99.90
2300;DHT22;1158;48.750;9.078;2023-04-25T08:04:44;6.20;99.90
2300;DHT22;1158;48.750;9.078;2023-04-25T08:07:11;6.20;99.90
2300;DHT22;1158;48.750;9.078;2023-04-25T08:09:38;6.30;99.90
2300;DHT22;1158;48.750;9.078;2023-04-25T08:12:05;6.30;99.90
2300;DHT22;1158;48.750;9.078;2023-04-25T08:14:33;6.30;99.90
2300;DHT22;1158;48.750;9.078;2023-04-25T08:17:03;6.30;99.90
2300;DHT22;1158;48.750;9.078;2023-04-25T08:19:30;6.20;99.90
2300;DHT22;1158;48.750;9.078;2023-04-25T08:21:56;6.30;99.90
2300;DHT22;1158;48.750;9.078;2023-04-25T08:24:23;6.30;99.90
2300;DHT22;1158;48.750;9.078;2023-04-25T08:26:50;6.20;99.90
2300;DHT22;1158;48.750;9.078;2023-04-25T08:29:17;6.20;99.90
2300;DHT22;1158;48.750;9.078;2023-04-25T08:31:45;6.10;99.90
2300;DHT22;1158;48.750;9.078;2023-04-25T08:34:12;6.10;99.90
2300;DHT22;1158;48.750;9.078;2023-04-25T08:36:39;6.10;99.90
2300;DHT22;1158;48.750;9.078;2023-04-25T08:39:05;6.20;99.90
2300;DHT22;1158;48.750;9.078;2023-04-25T08:41:32;6.20;99.90
2300;DHT22;1158;48.750;9.078;2023-04-25T08:43:59;6.20;99.90
2300;DHT22;1158;48.750;9.078;2023-04-25T08:46:27;6.30;99.90
2300;DHT22;1158;48.750;9.078;2023-04-25T08:49:00;6.30;99.90
2300;DHT22;1158;48.750;9.078;2023-04-25T08:51:27;6.20;99.90
2300;DHT22;1158;48.750;9.078;2023-04-25T08:54:07;6.20;99.90
2300;DHT22;1158;48.750;9.078;2023-04-25T08:56:34;6.20;99.90
2300;DHT22;1158;48.750;9.078;2023-04-25T08:59:01;6.30;99.90
2300;DHT22;1158;48.750;9.078;2023-04-25T09:01:28;6.30;99.90
2300;DHT22;1158;48.750;9.078;2023-04-25T09:03:57;6.40;99.90
2300;DHT22;1158;48.750;9.078;2023-04-25T09:06:24;6.40;99.90
2300;DHT22;1158;48.750;9.078;2023-04-25T09:08:51;6.40;99.90
2300;DHT22;1158;48.750;9.078;2023-04-25T09:11:20;6.40;99.90
2300;DHT22;1158;48.750;9.078;2023-04-25T09:13:47;6.30;99.90
2300;DHT22;1158;48.750;9.078;2023-04-25T09:16:14;6.30;99.90
2300;DHT22;1158;48.750;9.078;2023-04-25T09:18:42;6.30;99.90
2300;DHT22;1158;48.750;9.078;2023-04-25T09:21:11;6.30;99.90
2300;DHT22;1158;48.750;9.078;2023-04-25T09:23:45;6.30;99.90
2300;DHT22;1158;48.750;9.078;2023-04-25T09:26:14;6.30;99.90
2300;DHT22;1158;48.750;9.078;2023-04-25T09:28:42;6.20;99.90
2300;DHT22;1158;48.750;9.078;2023-04-25T09:31:09;6.20;99.90
2300;DHT22;1158;48.750;9.078;2023-04-25T09:33:37;6.30;99.90
2300;DHT22;1158;48.750;9.078;2023-04-25T09:36:06;6.30;99.90
2300;DHT22;1158;48.750;9.078;2023-04-25T09:38:40;6.30;99.90
2300;DHT22;1158;48.750;9.078;2023-04-25T09:41:07;6.20;99.90
2300;DHT22;1158;48.750;9.078;2023-04-25T09:43:34;6.10;99.90
2300;DHT22;1158;48.750;9.078;2023-04-25T09:46:01;5.90;99.90
2300;DHT22;1158;48.750;9.078;2023-04-25T09:48:28;5.90;99.90
2300;DHT22;1158;48.750;9.078;2023-04-25T09:51:06;5.90;99.90
2300;DHT22;1158;48.750;9.078;2023-04-25T09:53:36;5.80;99.90
2300;DHT22;1158;48.750;9.078;2023-04-25T09:56:04;5.80;99.90
2300;DHT22;1158;48.750;9.078;2023-04-25T09:58:32;5.90;99.90
2300;DHT22;1158;48.750;9.078;2023-04-25T10:01:00;5.90;99.90
2300;DHT22;1158;48.750;9.078;2023-04-25T10:03:29;6.00;99.90
2300;DHT22;1158;48.750;9.078;2023-04-25T10:05:59;6.00;99.90
2300;DHT22;1158;48.750;9.078;2023-04-25T10:08:30;6.10;99.90
2300;DHT22;1158;48.750;9.078;2023-04-25T10:11:00;6.20;99.90
2300;DHT22;1158;48.750;9.078;2023-04-25T10:13:28;6.20;99.90
2300;DHT22;1158;48.750;9.078;2023-04-25T10:15:57;6.30;99.90
2300;DHT22;1158;48.750;9.078;2023-04-25T10:18:25;6.20;99.90
2300;DHT22;1158;48.750;9.078;2023-04-25T10:20:52;6.20;99.90
2300;DHT22;1158;48.750;9.078;2023-04-25T10:23:20;6.20;99.90
2300;DHT22;1158;48.750;9.078;2023-04-25T10:25:47;6.30;99.90
2300;DHT22;1158;48.750;9.078;2023-04-25T10:28:15;6.20;99.90
2300;DHT22;1158;48.750;9.078;2023-04-25T10:30:57;6.30;99.90
2300;DHT22;1158;48.750;9.078;2023-04-25T10:33:30;6.40;99.90
2300;DHT22;1158;48.750;9.078;2023-04-25T10:35:58;6.40;99.90
2300;DHT22;1158;48.750;9.078;2023-04-25T10:38:26;6.20;99.90
2300;DHT22;1158;48.750;9.078;2023-04-25T10:41:03;6.20;99.90
2300;DHT22;1158;48.750;9.078;2023-04-25T10:43:36;6.20;99.90
2300;DHT22;1158;48.750;9.078;2023-04-25T10:46:13;6.10;99.90
2300;DHT22;1158;48.750;9.078;2023-04-25T10:48:46;6.10;99.90
2300;DHT22;1158;48.750;9.078;2023-04-25T10:51:17;6.20;99.90
2300;DHT22;1158;48.750;9.078;2023-04-25T10:53:44;6.30;99.90
2300;DHT22;1158;48.750;9.078;2023-04-25T10:56:12;6.20;99.90
2300;DHT22;1158;48.750;9.078;2023-04-25T10:58:45;6.30;99.90
2300;DHT22;1158;48.750;9.078;2023-04-25T11:01:13;6.30;99.90
2300;DHT22;1158;48.750;9.078;2023-04-25T11:03:41;6.30;99.90
2300;DHT22;1158;48.750;9.078;2023-04-25T11:06:15;6.00;99.90
2300;DHT22;1158;48.750;9.078;2023-04-25T11:08:48;5.90;99.90
2300;DHT22;1158;48.750;9.078;2023-04-25T11:11:15;5.70;99.90
2300;DHT22;1158;48.750;9.078;2023-04-25T11:13:43;5.90;99.90
2300;DHT22;1158;48.750;9.078;2023-04-25T11:16:10;6.00;99.90
2300;DHT22;1158;48.750;9.078;2023-04-25T11:18:37;5.90;99.90
2300;DHT22;1158;48.750;9.078;2023-04-25T11:21:04;5.80;99.90
2300;DHT22;1158;48.750;9.078;2023-04-25T11:23:31;5.80;99.90
2300;DHT22;1158;48.750;9.078;2023-04-25T11:25:58;6.10;99.90
2300;DHT22;1158;48.750;9.078;2023-04-25T11:28:26;6.00;99.90
2300;DHT22;1158;48.750;9.078;2023-04-25T11:30:55;6.20;99.90
2300;DHT22;1158;48.750;9.078;2023-04-25T11:33:23;6.10;99.90
2300;DHT22;1158;48.750;9.078;2023-04-25T11:35:51;6.50;99.90
2300;DHT22;1158;48.750;9.078;2023-04-25T11:38:19;6.80;99.90
2300;DHT22;1158;48.750;9.078;2023-04-25T11:40:50;7.10;99.90
2300;DHT22;1158;48.750;9.078;2023-04-25T11:43:17;7.20;99.90
2300;DHT22;1158;48.750;9.078;2023-04-25T11:45:46;7.30;99.90
2300;DHT22;1158;48.750;9.078;2023-04-25T11:48:15;7.50;99.90
2300;DHT22;1158;48.750;9.078;2023-04-25T11:50:42;7.30;99.90
2300;DHT22;1158;48.750;9.078;2023-04-25T11:53:09;7.30;99.90
2300;DHT22;1158;48.750;9.078;2023-04-25T11:55:36;7.30;99.90
2300;DHT22;1158;48.750;9.078;2023-04-25T11:58:04;7.20;99.90
2300;DHT22;1158;48.750;9.078;2023-04-25T12:00:31;7.00;99.90
2300;DHT22;1158;48.750;9.078;2023-04-25T12:02:58;7.10;99.90
2300;DHT22;1158;48.750;9.078;2023-04-25T12:05:28;7.00;99.90
2300;DHT22;1158;48.750;9.078;2023-04-25T12:07:56;7.00;99.90
2300;DHT22;1158;48.750;9.078;2023-04-25T12:10:24;7.10;99.90
2300;DHT22;1158;48.750;9.078;2023-04-25T12:12:51;7.30;99.90
2300;DHT22;1158;48.750;9.078;2023-04-25T12:15:25;7.10;99.90
2300;DHT22;1158;48.750;9.078;2023-04-25T12:17:53;7.20;99.90
2300;DHT22;1158;48.750;9.078;2023-04-25T12:20:23;7.20;99.90
2300;DHT22;1158;48.750;9.078;2023-04-25T12:22:52;7.30;99.90
2300;DHT22;1158;48.750;9.078;2023-04-25T12:25:36;7.60;99.90
2300;DHT22;1158;48.750;9.078;2023-04-25T12:28:10;7.50;99.90
2300;DHT22;1158;48.750;9.078;2023-04-25T12:30:55;7.60;99.90
2300;DHT22;1158;48.750;9.078;2023-04-25T12:33:23;8.00;99.90
2300;DHT22;1158;48.750;9.078;2023-04-25T12:35:50;8.00;99.90
2300;DHT22;1158;48.750;9.078;2023-04-25T12:38:25;8.00;99.90
2300;DHT22;1158;48.750;9.078;2023-04-25T12:40:53;7.70;99.90
2300;DHT22;1158;48.750;9.078;2023-04-25T12:43:20;7.90;99.90
2300;DHT22;1158;48.750;9.078;2023-04-25T12:45:48;8.00;99.90
2300;DHT22;1158;48.750;9.078;2023-04-25T12:48:16;8.30;99.90
2300;DHT22;1158;48.750;9.078;2023-04-25T12:50:43;8.30;99.90
2300;DHT22;1158;48.750;9.078;2023-04-25T12:53:10;8.00;99.90
2300;DHT22;1158;48.750;9.078;2023-04-25T12:55:38;8.10;99.90
2300;DHT22;1158;48.750;9.078;2023-04-25T12:58:05;8.20;99.90
2300;DHT22;1158;48.750;9.078;2023-04-25T13:00:33;8.60;99.90
2300;DHT22;1158;48.750;9.078;2023-04-25T13:03:00;8.80;99.90
2300;DHT22;1158;48.750;9.078;2023-04-25T13:05:27;9.00;99.90
2300;DHT22;1158;48.750;9.078;2023-04-25T13:07:55;9.20;99.90
2300;DHT22;1158;48.750;9.078;2023-04-25T13:10:22;9.30;99.90
2300;DHT22;1158;48.750;9.078;2023-04-25T13:12:50;9.70;99.90
2300;DHT22;1158;48.750;9.078;2023-04-25T13:15:17;10.10;99.90
2300;DHT22;1158;48.750;9.078;2023-04-25T13:17:43;10.10;99.90
2300;DHT22;1158;48.750;9.078;2023-04-25T13:20:11;10.40;99.90
2300;DHT22;1158;48.750;9.078;2023-04-25T13:22:39;10.50;99.90
2300;DHT22;1158;48.750;9.078;2023-04-25T13:25:07;10.20;99.90
2300;DHT22;1158;48.750;9.078;2023-04-25T13:27:35;10.00;99.90
2300;DHT22;1158;48.750;9.078;2023-04-25T13:30:04;9.80;99.90
2300;DHT22;1158;48.750;9.078;2023-04-25T13:32:33;9.90;99.90
2300;DHT22;1158;48.750;9.078;2023-04-25T13:35:02;10.10;99.90
2300;DHT22;1158;48.750;9.078;2023-04-25T13:37:28;10.10;99.90
2300;DHT22;1158;48.750;9.078;2023-04-25T13:39:56;9.90;99.90
2300;DHT22;1158;48.750;9.078;2023-04-25T13:42:23;9.90;99.90
2300;DHT22;1158;48.750;9.078;2023-04-25T13:44:50;10.00;99.90
2300;DHT22;1158;48.750;9.078;2023-04-25T13:47:18;9.90;99.90
2300;DHT22;1158;48.750;9.078;2023-04-25T13:49:44;9.80;99.90
2300;DHT22;1158;48.750;9.078;2023-04-25T13:52:11;9.30;99.90
2300;DHT22;1158;48.750;9.078;2023-04-25T13:54:38;9.10;99.90
2300;DHT22;1158;48.750;9.078;2023-04-25T13:57:05;9.20;99.90
2300;DHT22;1158;48.750;9.078;2023-04-25T13:59:32;9.50;99.90
2300;DHT22;1158;48.750;9.078;2023-04-25T14:01:58;10.20;99.90
2300;DHT22;1158;48.750;9.078;2023-04-25T14:04:27;10.90;99.90
2300;DHT22;1158;48.750;9.078;2023-04-25T14:06:54;10.70;99.90
2300;DHT22;1158;48.750;9.078;2023-04-25T14:09:20;10.70;99.90
2300;DHT22;1158;48.750;9.078;2023-04-25T14:11:50;12.00;99.90
2300;DHT22;1158;48.750;9.078;2023-04-25T14:14:17;12.40;99.90
2300;DHT22;1158;48.750;9.078;2023-04-25T14:16:44;13.10;99.90
2300;DHT22;1158;48.750;9.078;2023-04-25T14:19:11;13.20;99.90
2300;DHT22;1158;48.750;9.078;2023-04-25T14:21:39;13.10;99.90
2300;DHT22;1158;48.750;9.078;2023-04-25T14:24:06;13.60;99.90
2300;DHT22;1158;48.750;9.078;2023-04-25T14:26:33;13.90;99.90
2300;DHT22;1158;48.750;9.078;2023-04-25T14:29:00;14.30;99.90
2300;DHT22;1158;48.750;9.078;2023-04-25T14:31:27;13.90;99.90
2300;DHT22;1158;48.750;9.078;2023-04-25T14:33:54;13.40;99.90
2300;DHT22;1158;48.750;9.078;2023-04-25T14:36:20;12.60;99.90
2300;DHT22;1158;48.750;9.078;2023-04-25T14:38:48;12.30;99.90
2300;DHT22;1158;48.750;9.078;2023-04-25T14:41:15;12.10;99.90
2300;DHT22;1158;48.750;9.078;2023-04-25T14:43:42;11.60;99.90
2300;DHT22;1158;48.750;9.078;2023-04-25T14:46:10;11.70;99.90
2300;DHT22;1158;48.750;9.078;2023-04-25T14:48:37;12.10;99.90
2300;DHT22;1158;48.750;9.078;2023-04-25T14:51:04;11.80;99.90
2300;DHT22;1158;48.750;9.078;2023-04-25T14:53:31;11.20;99.90
2300;DHT22;1158;48.750;9.078;2023-04-25T14:55:59;11.40;99.90
2300;DHT22;1158;48.750;9.078;2023-04-25T14:58:26;11.50;99.90
2300;DHT22;1158;48.750;9.078;2023-04-25T15:00:53;12.80;99.90
2300;DHT22;1158;48.750;9.078;2023-04-25T15:03:20;15.20;99.90
2300;DHT22;1158;48.750;9.078;2023-04-25T15:05:47;16.00;99.90
2300;DHT22;1158;48.750;9.078;2023-04-25T15:08:13;15.70;99.90
2300;DHT22;1158;48.750;9.078;2023-04-25T15:10:40;14.90;99.90
2300;DHT22;1158;48.750;9.078;2023-04-25T15:13:08;13.80;99.90
2300;DHT22;1158;48.750;9.078;2023-04-25T15:15:35;13.70;99.90
2300;DHT22;1158;48.750;9.078;2023-04-25T15:18:02;14.70;99.90
2300;DHT22;1158;48.750;9.078;2023-04-25T15:20:29;14.00;99.90
2300;DHT22;1158;48.750;9.078;2023-04-25T15:22:56;13.70;99.90
2300;DHT22;1158;48.750;9.078;2023-04-25T15:25:23;12.70;99.90
2300;DHT22;1158;48.750;9.078;2023-04-25T15:27:50;12.40;99.90
2300;DHT22;1158;48.750;9.078;2023-04-25T15:30:18;13.00;99.90
2300;DHT22;1158;48.750;9.078;2023-04-25T15:32:45;13.60;99.90
2300;DHT22;1158;48.750;9.078;2023-04-25T15:35:13;13.10;99.90
2300;DHT22;1158;48.750;9.078;2023-04-25T15:37:40;12.80;99.90
2300;DHT22;1158;48.750;9.078;2023-04-25T15:40:09;13.30;99.90
2300;DHT22;1158;48.750;9.078;2023-04-25T15:42:36;13.30;99.90
2300;DHT22;1158;48.750;9.078;2023-04-25T15:45:05;12.80;99.90
2300;DHT22;1158;48.750;9.078;2023-04-25T15:47:34;12.50;99.90
2300;DHT22;1158;48.750;9.078;2023-04-25T15:50:01;12.70;99.90
2300;DHT22;1158;48.750;9.078;2023-04-25T15:52:29;12.80;99.90
2300;DHT22;1158;48.750;9.078;2023-04-25T15:54:56;12.60;99.90
2300;DHT22;1158;48.750;9.078;2023-04-25T15:57:23;12.40;99.90
2300;DHT22;1158;48.750;9.078;2023-04-25T15:59:50;12.20;99.90
2300;DHT22;1158;48.750;9.078;2023-04-25T16:02:17;12.00;99.90
2300;DHT22;1158;48.750;9.078;2023-04-25T16:04:45;11.60;99.90
2300;DHT22;1158;48.750;9.078;2023-04-25T16:07:12;11.60;99.90
2300;DHT22;1158;48.750;9.078;2023-04-25T16:09:39;11.40;99.90
2300;DHT22;1158;48.750;9.078;2023-04-25T16:12:07;11.20;99.90
2300;DHT22;1158;48.750;9.078;2023-04-25T16:14:34;11.00;99.90
2300;DHT22;1158;48.750;9.078;2023-04-25T16:17:00;10.70;99.90